createdAt,value
2018-09-16T00:00:01.648Z,11.50
2018-09-16T00:02:28.912Z,11.50
2018-09-16T00:04:56.320Z,11.50
2018-09-16T00:07:23.705Z,11.50
2018-09-16T00:09:51.106Z,11.50
2018-09-16T00:12:18.334Z,11.40
2018-09-16T00:14:45.796Z,11.40
2018-09-16T00:17:13.008Z,11.40
2018-09-16T00:19:40.273Z,11.40
2018-09-16T00:22:07.515Z,11.40
2018-09-16T00:24:34.795Z,11.40
2018-09-16T00:27:02.117Z,11.40
2018-09-16T00:29:29.483Z,11.40
2018-09-16T00:32:02.452Z,11.40
2018-09-16T00:34:29.774Z,11.30
2018-09-16T00:36:57.026Z,11.30
2018-09-16T00:39:24.333Z,11.30
2018-09-16T00:41:51.615Z,11.30
2018-09-16T00:44:18.916Z,11.20
2018-09-16T00:46:46.348Z,11.20
2018-09-16T00:49:13.567Z,11.10
2018-09-16T00:51:40.847Z,11.10
2018-09-16T00:54:08.119Z,11.10
2018-09-16T00:56:35.375Z,11.00
2018-09-16T00:59:02.756Z,11.00
2018-09-16T01:01:30.026Z,11.00
2018-09-16T01:03:57.270Z,10.90
2018-09-16T01:06:30.178Z,10.90
2018-09-16T01:08:57.462Z,10.90
2018-09-16T01:11:25.116Z,10.90
2018-09-16T01:13:52.627Z,10.80
2018-09-16T01:16:19.951Z,10.80
2018-09-16T01:18:47.313Z,10.80
2018-09-16T01:21:14.671Z,10.70
2018-09-16T01:23:42.095Z,10.70
2018-09-16T01:26:09.403Z,10.70
2018-09-16T01:28:36.867Z,10.70
2018-09-16T01:31:04.211Z,10.70
2018-09-16T01:33:31.623Z,10.60
2018-09-16T01:35:59.032Z,10.60
2018-09-16T01:38:26.370Z,10.60
2018-09-16T01:40:55.023Z,10.60
2018-09-16T01:43:22.376Z,10.60
2018-09-16T01:45:50.661Z,10.60
2018-09-16T01:48:18.228Z,10.60
2018-09-16T01:50:45.655Z,10.50
2018-09-16T01:53:18.247Z,10.50
2018-09-16T01:55:45.557Z,10.50
2018-09-16T01:58:12.749Z,10.50
2018-09-16T02:00:40.068Z,10.40
2018-09-16T02:03:07.326Z,10.40
2018-09-16T02:05:55.467Z,10.30
2018-09-16T02:08:24.197Z,10.30
2018-09-16T02:10:51.495Z,10.30
2018-09-16T02:13:18.800Z,10.30
2018-09-16T02:15:46.213Z,10.20
2018-09-16T02:18:13.623Z,10.20
2018-09-16T02:20:41.177Z,10.20
2018-09-16T02:23:09.039Z,10.30
2018-09-16T02:25:36.471Z,10.30
2018-09-16T02:28:03.762Z,10.30
2018-09-16T02:30:31.092Z,10.30
2018-09-16T02:32:59.378Z,10.30
2018-09-16T02:38:29.655Z,10.20
2018-09-16T02:40:57.154Z,10.20
2018-09-16T02:43:24.821Z,10.20
2018-09-16T02:45:52.228Z,10.20
2018-09-16T02:48:19.675Z,10.20
2018-09-16T02:50:47.179Z,10.20
2018-09-16T02:53:14.697Z,10.10
2018-09-16T02:55:42.281Z,10.10
2018-09-16T02:58:09.877Z,10.10
2018-09-16T03:00:37.418Z,10.10
2018-09-16T03:03:04.931Z,10.00
2018-09-16T03:05:38.170Z,10.00
2018-09-16T03:08:05.888Z,10.00
2018-09-16T03:10:33.510Z,10.00
2018-09-16T03:13:02.063Z,10.00
2018-09-16T03:15:29.987Z,9.90
2018-09-16T03:17:57.478Z,9.90
2018-09-16T03:20:25.011Z,9.90
2018-09-16T03:22:52.661Z,9.90
2018-09-16T03:25:20.162Z,9.90
2018-09-16T03:27:48.494Z,9.90
2018-09-16T03:30:15.987Z,9.90
2018-09-16T03:32:43.626Z,9.80
2018-09-16T03:35:11.321Z,9.80
2018-09-16T03:37:38.862Z,9.80
2018-09-16T03:40:06.473Z,9.80
2018-09-16T03:42:34.176Z,9.80
2018-09-16T03:45:01.602Z,9.80
2018-09-16T03:47:29.101Z,9.70
2018-09-16T03:49:56.676Z,9.70
2018-09-16T03:52:24.145Z,9.70
2018-09-16T03:54:51.706Z,9.70
2018-09-16T03:57:19.236Z,9.70
2018-09-16T03:59:46.797Z,9.70
2018-09-16T04:02:14.376Z,9.60
2018-09-16T04:04:41.935Z,9.60
2018-09-16T04:07:09.585Z,9.60
2018-09-16T04:09:37.147Z,9.60
2018-09-16T04:12:04.839Z,9.60
2018-09-16T04:14:32.681Z,9.60
2018-09-16T04:17:00.235Z,9.60
2018-09-16T04:19:28.736Z,9.60
2018-09-16T04:21:56.297Z,9.60
2018-09-16T04:24:23.854Z,9.60
2018-09-16T04:26:51.511Z,9.50
2018-09-16T04:29:19.037Z,9.50
2018-09-16T04:31:46.519Z,9.50
2018-09-16T04:34:14.051Z,9.50
2018-09-16T04:36:41.625Z,9.50
2018-09-16T04:39:10.007Z,9.50
2018-09-16T04:41:37.628Z,9.50
2018-09-16T04:44:05.408Z,9.50
2018-09-16T04:46:32.990Z,9.50
2018-09-16T04:49:00.572Z,9.40
2018-09-16T04:51:29.273Z,9.40
2018-09-16T04:53:57.800Z,9.40
2018-09-16T04:56:25.328Z,9.40
2018-09-16T04:58:52.923Z,9.40
2018-09-16T05:01:21.853Z,9.40
2018-09-16T05:03:49.416Z,9.40
2018-09-16T05:06:17.072Z,9.30
2018-09-16T05:08:45.663Z,9.30
2018-09-16T05:11:13.199Z,9.30
2018-09-16T05:13:40.657Z,9.40
2018-09-16T05:16:08.359Z,9.30
2018-09-16T05:18:35.869Z,9.30
2018-09-16T05:21:03.388Z,9.40
2018-09-16T05:23:30.915Z,9.40
2018-09-16T05:25:58.513Z,9.50
2018-09-16T05:28:26.113Z,9.40
2018-09-16T05:30:53.603Z,9.40
2018-09-16T05:33:21.156Z,9.50
2018-09-16T05:35:48.756Z,9.50
2018-09-16T05:38:16.314Z,9.40
2018-09-16T05:40:43.891Z,9.50
2018-09-16T05:43:11.503Z,9.50
2018-09-16T05:45:39.076Z,9.60
2018-09-16T05:48:06.620Z,9.70
2018-09-16T05:50:34.205Z,9.70
2018-09-16T05:53:01.886Z,9.80
2018-09-16T05:55:29.356Z,10.00
2018-09-16T05:57:56.842Z,10.10
2018-09-16T06:00:28.159Z,10.20
2018-09-16T06:02:56.234Z,10.30
2018-09-16T06:05:24.775Z,10.50
2018-09-16T06:07:52.418Z,10.60
2018-09-16T06:10:20.273Z,10.80
2018-09-16T06:12:47.922Z,11.00
2018-09-16T06:15:15.599Z,11.10
2018-09-16T06:17:43.338Z,11.20
2018-09-16T06:20:10.862Z,11.40
2018-09-16T06:22:38.400Z,11.50
2018-09-16T06:25:06.431Z,11.70
2018-09-16T06:27:34.135Z,11.80
2018-09-16T06:30:01.740Z,11.80
2018-09-16T06:32:29.299Z,11.90
2018-09-16T06:34:56.984Z,12.00
2018-09-16T06:37:25.080Z,12.10
2018-09-16T06:39:52.773Z,12.20
2018-09-16T06:42:20.340Z,12.30
2018-09-16T06:44:47.844Z,12.40
2018-09-16T06:47:15.523Z,12.50
2018-09-16T06:49:43.150Z,12.60
2018-09-16T06:52:10.905Z,12.80
2018-09-16T06:54:38.482Z,12.90
2018-09-16T06:57:06.038Z,12.90
2018-09-16T06:59:33.523Z,13.00
2018-09-16T07:02:01.037Z,13.10
2018-09-16T07:04:28.616Z,13.20
2018-09-16T07:06:56.127Z,13.30
2018-09-16T07:09:23.571Z,13.40
2018-09-16T07:11:51.165Z,13.50
2018-09-16T07:14:18.686Z,13.60
2018-09-16T07:16:46.224Z,13.70
2018-09-16T07:19:13.697Z,13.90
2018-09-16T07:21:41.319Z,14.00
2018-09-16T07:24:08.882Z,14.00
2018-09-16T07:26:36.356Z,14.20
2018-09-16T07:29:04.132Z,14.40
2018-09-16T07:31:31.753Z,14.50
2018-09-16T07:33:59.252Z,14.70
2018-09-16T07:36:26.880Z,14.70
2018-09-16T07:38:54.346Z,14.80
2018-09-16T07:41:21.836Z,14.80
2018-09-16T07:43:49.389Z,14.90
2018-09-16T07:46:17.063Z,15.00
2018-09-16T07:48:44.632Z,15.00
2018-09-16T07:51:12.164Z,15.10
2018-09-16T07:53:39.691Z,15.30
2018-09-16T07:56:07.162Z,15.40
2018-09-16T07:58:34.728Z,15.60
2018-09-16T08:01:02.278Z,15.70
2018-09-16T08:03:29.825Z,16.00
2018-09-16T08:05:57.370Z,16.00
2018-09-16T08:08:24.870Z,16.20
2018-09-16T08:10:52.414Z,16.30
2018-09-16T08:13:19.950Z,16.40
2018-09-16T08:15:47.491Z,16.50
2018-09-16T08:18:14.992Z,16.80
2018-09-16T08:20:42.534Z,16.90
2018-09-16T08:23:10.093Z,17.00
2018-09-16T08:25:37.523Z,17.30
2018-09-16T08:28:05.065Z,17.50
2018-09-16T08:30:32.505Z,17.70
2018-09-16T08:32:59.964Z,17.80
2018-09-16T08:35:27.503Z,17.80
2018-09-16T08:37:55.533Z,17.90
2018-09-16T08:40:22.874Z,18.00
2018-09-16T08:42:50.464Z,18.20
2018-09-16T08:45:17.927Z,18.40
2018-09-16T08:47:45.456Z,18.60
2018-09-16T08:50:12.974Z,18.90
2018-09-16T08:52:40.526Z,19.20
2018-09-16T08:55:08.099Z,19.40
2018-09-16T08:57:35.705Z,19.70
2018-09-16T09:00:03.458Z,19.60
2018-09-16T09:02:30.948Z,19.60
2018-09-16T09:04:58.436Z,19.50
2018-09-16T09:07:26.882Z,19.60
2018-09-16T09:09:55.229Z,19.70
2018-09-16T09:12:22.834Z,19.90
2018-09-16T09:14:50.587Z,19.80
2018-09-16T09:17:18.112Z,19.90
2018-09-16T09:19:45.641Z,19.70
2018-09-16T09:22:13.154Z,19.70
2018-09-16T09:24:40.671Z,19.80
2018-09-16T09:27:08.249Z,19.80
2018-09-16T09:29:35.779Z,19.80
2018-09-16T09:32:03.328Z,19.90
2018-09-16T09:34:30.878Z,19.90
2018-09-16T09:36:58.462Z,19.90
2018-09-16T09:39:25.997Z,19.90
2018-09-16T09:41:53.610Z,20.10
2018-09-16T09:44:21.242Z,20.30
2018-09-16T09:46:48.873Z,20.60
2018-09-16T09:49:16.468Z,20.80
2018-09-16T09:51:44.112Z,20.90
2018-09-16T09:54:11.625Z,20.80
2018-09-16T09:56:39.148Z,20.80
2018-09-16T09:59:06.757Z,20.70
2018-09-16T10:01:34.585Z,20.60
2018-09-16T10:04:02.097Z,20.50
2018-09-16T10:06:29.575Z,20.50
2018-09-16T10:08:57.056Z,20.50
2018-09-16T10:11:24.735Z,20.60
2018-09-16T10:13:52.405Z,20.60
2018-09-16T10:16:19.916Z,20.70
2018-09-16T10:18:47.495Z,20.70
2018-09-16T10:21:15.171Z,20.70
2018-09-16T10:23:42.880Z,20.60
2018-09-16T10:26:10.517Z,20.70
2018-09-16T10:28:38.049Z,20.90
2018-09-16T10:31:05.637Z,21.00
2018-09-16T10:33:33.163Z,21.00
2018-09-16T10:36:00.694Z,21.10
2018-09-16T10:38:28.346Z,21.20
2018-09-16T10:40:55.758Z,21.30
2018-09-16T10:43:23.185Z,21.30
2018-09-16T10:45:50.816Z,21.30
2018-09-16T10:48:18.358Z,21.20
2018-09-16T10:50:45.857Z,21.30
2018-09-16T10:53:13.305Z,21.30
2018-09-16T10:55:40.727Z,21.30
2018-09-16T10:58:08.152Z,21.40
2018-09-16T11:00:35.640Z,21.50
2018-09-16T11:03:03.126Z,21.60
2018-09-16T11:05:30.583Z,21.60
2018-09-16T11:07:58.125Z,21.70
2018-09-16T11:10:25.622Z,21.80
2018-09-16T11:12:53.079Z,22.00
2018-09-16T11:15:20.517Z,22.00
2018-09-16T11:17:47.989Z,22.20
2018-09-16T11:20:15.405Z,22.30
2018-09-16T11:22:42.880Z,22.10
2018-09-16T11:25:10.423Z,22.10
2018-09-16T11:27:37.947Z,22.00
2018-09-16T11:30:05.523Z,22.30
2018-09-16T11:32:32.981Z,22.40
2018-09-16T11:35:00.540Z,22.50
2018-09-16T11:37:28.001Z,22.30
2018-09-16T11:39:55.470Z,22.20
2018-09-16T11:42:23.028Z,22.00
2018-09-16T11:44:50.457Z,22.20
2018-09-16T11:47:17.909Z,22.20
2018-09-16T11:49:45.373Z,22.40
2018-09-16T11:52:12.813Z,22.70
2018-09-16T11:54:40.270Z,22.80
2018-09-16T11:57:07.778Z,22.80
2018-09-16T11:59:35.276Z,22.90
2018-09-16T12:02:02.732Z,23.20
2018-09-16T12:04:30.149Z,23.40
2018-09-16T12:06:58.163Z,23.50
2018-09-16T12:09:25.768Z,23.30
2018-09-16T12:11:53.797Z,23.40
2018-09-16T12:14:21.207Z,23.60
2018-09-16T12:16:48.647Z,23.90
2018-09-16T12:19:16.109Z,23.80
2018-09-16T12:21:43.574Z,23.80
2018-09-16T12:24:11.015Z,24.10
2018-09-16T12:26:38.472Z,24.80
2018-09-16T12:29:05.937Z,25.00
2018-09-16T12:31:33.584Z,25.70
2018-09-16T12:34:01.057Z,26.70
2018-09-16T12:36:28.505Z,27.60
2018-09-16T12:38:55.970Z,27.40
2018-09-16T12:41:23.388Z,28.00
2018-09-16T12:43:50.873Z,28.70
2018-09-16T12:46:18.331Z,28.90
2018-09-16T12:48:45.744Z,28.70
2018-09-16T12:51:13.283Z,28.70
2018-09-16T12:53:40.763Z,29.60
2018-09-16T12:56:08.225Z,29.70
2018-09-16T12:58:35.717Z,29.60
2018-09-16T13:01:03.204Z,29.50
2018-09-16T13:03:30.717Z,29.40
2018-09-16T13:05:58.183Z,29.10
2018-09-16T13:08:25.611Z,29.20
2018-09-16T13:10:53.065Z,29.40
2018-09-16T13:13:20.634Z,29.80
2018-09-16T13:15:48.307Z,29.40
2018-09-16T13:18:15.804Z,29.60
2018-09-16T13:20:43.278Z,29.70
2018-09-16T13:23:10.712Z,29.70
2018-09-16T13:25:38.188Z,30.80
2018-09-16T13:28:05.822Z,31.00
2018-09-16T13:30:33.348Z,30.90
2018-09-16T13:33:00.789Z,30.20
2018-09-16T13:35:29.238Z,30.00
2018-09-16T13:37:56.662Z,30.00
2018-09-16T13:40:24.236Z,28.90
2018-09-16T13:42:51.697Z,27.70
2018-09-16T13:45:19.136Z,28.00
2018-09-16T13:47:46.604Z,28.50
2018-09-16T13:50:14.086Z,29.00
2018-09-16T13:52:41.612Z,28.90
2018-09-16T13:55:09.082Z,28.30
2018-09-16T13:57:36.843Z,28.70
2018-09-16T14:00:04.484Z,29.90
2018-09-16T14:02:32.045Z,30.80
2018-09-16T14:04:59.536Z,31.90
2018-09-16T14:07:26.974Z,32.70
2018-09-16T14:09:54.545Z,32.70
2018-09-16T14:12:22.017Z,32.00
2018-09-16T14:14:49.516Z,31.60
2018-09-16T14:17:17.038Z,30.90
2018-09-16T14:19:44.479Z,30.10
2018-09-16T14:22:11.951Z,30.00
2018-09-16T14:24:39.414Z,30.10
2018-09-16T14:27:06.922Z,30.80
2018-09-16T14:29:34.394Z,31.50
2018-09-16T14:32:01.899Z,31.30
2018-09-16T14:34:29.375Z,31.60
2018-09-16T14:36:56.832Z,31.70
2018-09-16T14:39:24.352Z,30.90
2018-09-16T14:41:51.806Z,30.70
2018-09-16T14:44:19.240Z,29.90
2018-09-16T14:46:46.719Z,29.20
2018-09-16T14:49:14.155Z,29.10
2018-09-16T14:51:41.632Z,28.90
2018-09-16T14:54:09.121Z,28.80
2018-09-16T14:56:36.782Z,29.00
2018-09-16T14:59:04.266Z,29.10
2018-09-16T15:01:31.709Z,28.90
2018-09-16T15:03:59.156Z,28.80
2018-09-16T15:06:26.605Z,28.80
2018-09-16T15:08:54.021Z,28.80
2018-09-16T15:11:21.509Z,28.50
2018-09-16T15:13:48.952Z,28.40
2018-09-16T15:16:16.493Z,28.40
2018-09-16T15:18:43.966Z,28.60
2018-09-16T15:21:11.484Z,28.20
2018-09-16T15:23:38.926Z,27.60
2018-09-16T15:26:07.313Z,27.00
2018-09-16T15:28:34.767Z,26.50
2018-09-16T15:31:02.228Z,26.10
2018-09-16T15:33:29.754Z,25.80
2018-09-16T15:35:57.282Z,25.60
2018-09-16T15:38:24.751Z,25.40
2018-09-16T15:40:52.233Z,25.30
2018-09-16T15:43:19.678Z,25.20
2018-09-16T15:45:47.141Z,25.00
2018-09-16T15:48:14.662Z,24.90
2018-09-16T15:50:42.166Z,24.80
2018-09-16T15:53:09.617Z,24.80
2018-09-16T15:55:37.194Z,24.80
2018-09-16T15:58:04.700Z,25.10
2018-09-16T16:00:32.171Z,25.20
2018-09-16T16:02:59.658Z,25.20
2018-09-16T16:05:27.129Z,25.20
2018-09-16T16:07:54.581Z,25.30
2018-09-16T16:10:22.032Z,25.40
2018-09-16T16:12:49.547Z,25.50
2018-09-16T16:15:17.065Z,25.90
2018-09-16T16:17:44.609Z,26.50
2018-09-16T16:20:12.075Z,26.80
2018-09-16T16:22:39.574Z,26.90
2018-09-16T16:25:06.976Z,26.90
2018-09-16T16:27:34.407Z,26.90
2018-09-16T16:30:01.864Z,27.00
2018-09-16T16:32:29.332Z,26.90
2018-09-16T16:34:56.783Z,26.60
2018-09-16T16:37:24.226Z,26.60
2018-09-16T16:39:51.797Z,26.10
2018-09-16T16:42:19.243Z,25.80
2018-09-16T16:44:47.313Z,25.60
2018-09-16T16:47:14.693Z,25.30
2018-09-16T16:49:42.172Z,25.00
2018-09-16T16:52:09.634Z,24.80
2018-09-16T16:54:37.091Z,24.70
2018-09-16T16:57:04.601Z,24.50
2018-09-16T16:59:32.038Z,24.20
2018-09-16T17:01:59.472Z,24.00
2018-09-16T17:04:27.013Z,23.70
2018-09-16T17:06:54.492Z,23.50
2018-09-16T17:09:22.015Z,23.30
2018-09-16T17:11:49.501Z,23.00
2018-09-16T17:14:16.957Z,22.80
2018-09-16T17:16:45.188Z,22.70
2018-09-16T17:19:12.635Z,22.50
2018-09-16T17:21:40.106Z,22.20
2018-09-16T17:24:07.668Z,22.00
2018-09-16T17:26:35.102Z,21.70
2018-09-16T17:29:02.615Z,21.50
2018-09-16T17:31:30.152Z,21.40
2018-09-16T17:33:57.717Z,21.30
2018-09-16T17:36:25.263Z,21.20
2018-09-16T17:38:52.708Z,21.10
2018-09-16T17:41:20.269Z,21.00
2018-09-16T17:43:47.830Z,20.90
2018-09-16T17:46:15.232Z,20.80
2018-09-16T17:48:42.777Z,20.80
2018-09-16T17:51:10.255Z,20.80
2018-09-16T17:53:37.732Z,20.60
2018-09-16T17:56:05.238Z,20.50
2018-09-16T17:58:32.695Z,20.40
2018-09-16T18:01:00.237Z,20.30
2018-09-16T18:03:27.673Z,20.30
2018-09-16T18:05:55.146Z,20.10
2018-09-16T18:08:28.360Z,20.00
2018-09-16T18:10:55.838Z,19.90
2018-09-16T18:13:23.347Z,19.90
2018-09-16T18:15:50.828Z,19.80
2018-09-16T18:18:18.395Z,19.80
2018-09-16T18:20:45.883Z,19.80
2018-09-16T18:23:13.372Z,19.70
2018-09-16T18:25:40.838Z,19.70
2018-09-16T18:28:08.290Z,19.70
2018-09-16T18:30:35.830Z,19.60
2018-09-16T18:33:03.281Z,19.60
2018-09-16T18:35:30.727Z,19.50
2018-09-16T18:37:58.174Z,19.50
2018-09-16T18:40:25.641Z,19.40
2018-09-16T18:42:53.223Z,19.30
2018-09-16T18:45:20.697Z,19.20
2018-09-16T18:47:48.145Z,19.10
2018-09-16T18:50:15.583Z,19.00
2018-09-16T18:52:43.009Z,19.00
2018-09-16T18:55:10.466Z,18.90
2018-09-16T18:57:37.928Z,18.90
2018-09-16T19:00:05.433Z,18.90
2018-09-16T19:02:32.866Z,18.90
2018-09-16T19:05:00.340Z,18.80
2018-09-16T19:07:27.835Z,18.80
2018-09-16T19:09:55.346Z,18.80
2018-09-16T19:12:22.867Z,18.70
2018-09-16T19:14:50.810Z,18.60
2018-09-16T19:17:18.831Z,18.60
2018-09-16T19:19:46.373Z,18.50
2018-09-16T19:22:13.880Z,18.40
2018-09-16T19:24:41.408Z,18.30
2018-09-16T19:27:08.940Z,18.30
2018-09-16T19:29:36.372Z,18.20
2018-09-16T19:32:03.846Z,18.30
2018-09-16T19:34:31.325Z,18.20
2018-09-16T19:36:58.765Z,18.20
2018-09-16T19:39:26.219Z,18.20
2018-09-16T19:41:53.767Z,18.20
2018-09-16T19:44:21.322Z,18.10
2018-09-16T19:46:48.783Z,18.10
2018-09-16T19:49:16.241Z,18.10
2018-09-16T19:51:43.693Z,18.10
2018-09-16T19:54:11.706Z,18.00
2018-09-16T19:56:39.197Z,18.00
2018-09-16T19:59:06.661Z,18.00
2018-09-16T20:01:34.122Z,18.00
2018-09-16T20:04:01.572Z,18.00
2018-09-16T20:06:29.018Z,18.00
2018-09-16T20:08:56.488Z,17.90
2018-09-16T20:11:23.937Z,17.90
2018-09-16T20:13:51.493Z,17.90
2018-09-16T20:16:18.939Z,17.90
2018-09-16T20:18:46.592Z,17.90
2018-09-16T20:21:14.134Z,17.90
2018-09-16T20:23:41.616Z,17.90
2018-09-16T20:26:09.083Z,17.80
2018-09-16T20:28:36.572Z,17.80
2018-09-16T20:31:04.042Z,17.80
2018-09-16T20:33:31.464Z,17.80
2018-09-16T20:35:58.989Z,17.70
2018-09-16T20:38:26.546Z,17.70
2018-09-16T20:40:54.023Z,17.70
2018-09-16T20:43:21.566Z,17.60
2018-09-16T20:45:49.035Z,17.60
2018-09-16T20:48:16.595Z,17.60
2018-09-16T20:50:44.109Z,17.50
2018-09-16T20:53:11.630Z,17.50
2018-09-16T20:55:39.139Z,17.50
2018-09-16T20:58:06.686Z,17.40
2018-09-16T21:00:34.191Z,17.40
2018-09-16T21:03:01.709Z,17.30
2018-09-16T21:05:29.385Z,17.20
2018-09-16T21:07:56.971Z,17.10
2018-09-16T21:10:24.496Z,16.90
2018-09-16T21:12:52.086Z,16.80
2018-09-16T21:15:19.607Z,16.70
2018-09-16T21:17:47.161Z,16.60
2018-09-16T21:20:14.700Z,16.60
2018-09-16T21:22:42.148Z,16.50
2018-09-16T21:25:09.771Z,16.50
2018-09-16T21:27:37.221Z,16.50
2018-09-16T21:30:04.800Z,16.40
2018-09-16T21:32:32.336Z,16.30
2018-09-16T21:34:59.889Z,16.20
2018-09-16T21:37:27.434Z,16.20
2018-09-16T21:39:55.076Z,16.10
2018-09-16T21:42:22.713Z,16.00
2018-09-16T21:44:50.219Z,16.00
2018-09-16T21:47:17.936Z,16.00
2018-09-16T21:49:45.585Z,15.90
2018-09-16T21:52:13.199Z,15.80
2018-09-16T21:54:40.748Z,15.60
2018-09-16T21:57:08.593Z,15.50
2018-09-16T21:59:36.087Z,15.40
2018-09-16T22:02:03.668Z,15.30
2018-09-16T22:04:31.319Z,15.20
2018-09-16T22:06:58.960Z,15.20
2018-09-16T22:09:26.611Z,15.10
2018-09-16T22:11:54.629Z,15.10
2018-09-16T22:14:22.219Z,15.10
2018-09-16T22:16:49.804Z,15.00
2018-09-16T22:19:17.302Z,14.90
2018-09-16T22:21:45.136Z,15.00
2018-09-16T22:24:12.685Z,14.90
2018-09-16T22:26:40.262Z,14.90
2018-09-16T22:29:07.976Z,14.80
2018-09-16T22:31:37.317Z,14.80
2018-09-16T22:34:05.044Z,14.80
2018-09-16T22:36:32.713Z,14.70
2018-09-16T22:39:00.317Z,14.60
2018-09-16T22:41:27.975Z,14.60
2018-09-16T22:43:55.647Z,14.50
2018-09-16T22:46:23.357Z,14.40
2018-09-16T22:48:50.979Z,14.30
2018-09-16T22:51:18.604Z,14.20
2018-09-16T22:53:46.173Z,14.20
2018-09-16T22:56:13.770Z,14.00
2018-09-16T22:58:41.422Z,14.00
2018-09-16T23:01:09.469Z,13.90
2018-09-16T23:03:37.196Z,13.90
2018-09-16T23:06:05.191Z,13.80
2018-09-16T23:08:32.900Z,13.70
2018-09-16T23:11:00.624Z,13.70
2018-09-16T23:13:28.255Z,13.70
2018-09-16T23:15:55.960Z,13.60
2018-09-16T23:18:23.677Z,13.50
2018-09-16T23:20:51.411Z,13.50
2018-09-16T23:23:19.111Z,13.30
2018-09-16T23:25:46.874Z,13.30
2018-09-16T23:28:15.644Z,13.30
2018-09-16T23:30:44.419Z,13.20
2018-09-16T23:33:13.508Z,13.10
2018-09-16T23:35:41.345Z,13.10
2018-09-16T23:38:09.119Z,13.10
2018-09-16T23:40:36.903Z,13.10
2018-09-16T23:43:04.682Z,13.10
2018-09-16T23:45:32.357Z,13.00
2018-09-16T23:48:00.016Z,13.00
2018-09-16T23:50:27.630Z,13.00
2018-09-16T23:52:55.666Z,12.90
2018-09-16T23:55:23.167Z,12.90
2018-09-16T23:57:51.758Z,12.90
